Time;durP1;ratioP1;P1;durP2;ratioP2;P2;SDS_P1;SDS_P2;PMS_P1;PMS_P2;Temp;Humidity;BMP_temperature;BMP_pressure;BME280_temperature;BME280_humidity;BME280_pressure;Samples;Min_cycle;Max_cycle;Signal;HPM_P1;HPM_P2
2023/06/05 00:01:17;;;;;;;6.30;2.40;;;20.80;54.10;;;;;;10017849;28;20037;-60
2023/06/05 00:06:08;;;;;;;2.67;1.60;;;20.80;54.20;;;;;;10016323;28;20136;-61
2023/06/05 00:10:58;;;;;;;3.03;1.80;;;20.80;54.40;;;;;;10026107;28;20030;-64
2023/06/05 00:15:51;;;;;;;1.98;1.40;;;20.90;54.30;;;;;;10026763;28;20030;-60
2023/06/05 00:20:41;;;;;;;4.10;1.60;;;20.70;54.60;;;;;;10025849;28;20036;-62
2023/06/05 00:25:32;;;;;;;3.60;1.88;;;20.70;54.70;;;;;;10026078;28;20499;-61
2023/06/05 00:30:23;;;;;;;2.95;1.80;;;20.50;55.00;;;;;;10026523;28;20034;-61
2023/06/05 00:35:14;;;;;;;2.38;1.55;;;20.50;55.00;;;;;;10026088;28;20051;-60
2023/06/05 00:40:05;;;;;;;2.58;1.52;;;20.50;55.10;;;;;;9994178;28;20041;-61
2023/06/05 00:44:56;;;;;;;2.83;1.92;;;20.40;55.10;;;;;;10024250;28;20145;-61
2023/06/05 00:49:48;;;;;;;3.17;1.80;;;20.30;55.60;;;;;;10031164;28;20140;-70
2023/06/05 00:54:40;;;;;;;2.20;1.85;;;20.40;55.40;;;;;;10027986;28;20553;-69
2023/06/05 00:59:32;;;;;;;2.45;2.20;;;20.40;55.50;;;;;;9999240;28;20033;-60
2023/06/05 01:04:23;;;;;;;3.25;1.70;;;20.40;55.70;;;;;;10006224;28;20544;-61
2023/06/05 01:09:13;;;;;;;2.75;1.83;;;20.30;55.60;;;;;;10024099;28;20392;-62
2023/06/05 01:14:30;;;;;;;3.05;1.75;;;20.30;55.60;;;;;;10006606;28;20113;-63
2023/06/05 01:19:24;;;;;;;3.67;1.65;;;20.20;56.10;;;;;;10023031;28;20029;-67
2023/06/05 01:24:15;;;;;;;2.00;1.60;;;20.10;56.10;;;;;;10024933;28;20064;-61
2023/06/05 01:29:09;;;;;;;2.75;1.80;;;19.90;56.30;;;;;;10014013;28;20030;-60
2023/06/05 01:34:07;;;;;;;2.15;1.55;;;19.90;56.40;;;;;;10024334;28;20398;-67
2023/06/05 01:39:00;;;;;;;2.97;1.80;;;20.00;56.40;;;;;;10009441;28;20026;-61
2023/06/05 01:43:52;;;;;;;2.53;1.65;;;19.80;56.50;;;;;;10003431;28;20245;-63
2023/06/05 01:48:44;;;;;;;2.05;1.58;;;19.70;56.80;;;;;;10023413;28;20030;-64
2023/06/05 01:53:34;;;;;;;3.58;2.25;;;19.90;56.50;;;;;;10024461;28;20153;-69
2023/06/05 01:58:26;;;;;;;1.67;1.55;;;19.80;56.60;;;;;;10017448;28;20049;-69
2023/06/05 02:03:16;;;;;;;1.60;1.23;;;19.70;56.70;;;;;;10008715;28;20048;-62
2023/06/05 02:08:09;;;;;;;3.67;1.58;;;19.60;56.90;;;;;;10002475;28;20034;-61
2023/06/05 02:13:00;;;;;;;2.95;1.38;;;19.70;56.80;;;;;;10020590;28;20022;-60
2023/06/05 02:17:53;;;;;;;2.28;1.58;;;19.60;56.90;;;;;;10020598;28;20066;-63
2023/06/05 02:22:49;;;;;;;3.38;1.60;;;19.60;57.00;;;;;;10002679;28;20038;-61
2023/06/05 02:27:41;;;;;;;3.60;2.67;;;19.60;57.10;;;;;;10020501;28;20612;-61
2023/06/05 02:32:31;;;;;;;2.10;1.40;;;19.50;57.10;;;;;;10019562;28;20045;-61
2023/06/05 02:37:22;;;;;;;2.33;1.70;;;19.60;57.20;;;;;;10020372;28;20527;-65
2023/06/05 02:42:13;;;;;;;2.78;1.40;;;19.40;57.50;;;;;;10020097;28;20052;-62
2023/06/05 02:47:04;;;;;;;2.47;1.67;;;19.30;57.50;;;;;;10016891;28;20065;-62
2023/06/05 02:51:55;;;;;;;4.95;1.50;;;19.30;57.70;;;;;;10019898;28;20029;-60
2023/06/05 02:56:46;;;;;;;3.83;1.50;;;19.30;57.70;;;;;;10016852;28;20027;-61
2023/06/05 03:01:37;;;;;;;2.55;1.65;;;19.20;57.70;;;;;;10011426;28;20022;-69
2023/06/05 03:06:33;;;;;;;2.45;1.40;;;19.20;57.80;;;;;;10018987;28;20488;-65
2023/06/05 03:11:25;;;;;;;1.45;1.17;;;19.20;57.90;;;;;;10015239;28;20034;-60
2023/06/05 03:16:17;;;;;;;1.90;1.08;;;19.10;58.00;;;;;;10021853;28;20030;-64
2023/06/05 03:21:10;;;;;;;2.55;1.55;;;19.00;58.00;;;;;;10024419;28;20121;-65
2023/06/05 03:26:01;;;;;;;1.90;1.38;;;19.00;58.30;;;;;;10010558;28;20056;-61
2023/06/05 03:30:52;;;;;;;1.83;1.60;;;18.90;58.40;;;;;;10026988;28;20087;-62
2023/06/05 03:35:45;;;;;;;2.33;1.30;;;18.90;58.50;;;;;;10030142;28;20467;-63
2023/06/05 03:40:39;;;;;;;1.65;1.40;;;18.90;59.20;;;;;;10012565;28;20614;-64
2023/06/05 03:45:29;;;;;;;3.67;1.38;;;19.10;58.40;;;;;;10008905;28;20062;-61
2023/06/05 03:50:20;;;;;;;1.40;1.27;;;19.00;58.40;;;;;;10030220;28;20507;-62
2023/06/05 03:55:11;;;;;;;2.08;1.40;;;19.00;58.30;;;;;;10026002;28;20096;-62
2023/06/05 04:00:03;;;;;;;1.85;1.25;;;18.90;58.80;;;;;;10016332;28;20030;-61
2023/06/05 04:04:53;;;;;;;1.85;1.50;;;18.80;59.00;;;;;;10027463;28;20324;-61
2023/06/05 04:09:44;;;;;;;2.05;1.23;;;18.70;59.10;;;;;;10024088;28;20269;-63
2023/06/05 04:14:35;;;;;;;2.25;1.42;;;18.80;59.10;;;;;;10023823;28;20195;-61
2023/06/05 04:19:27;;;;;;;3.35;1.48;;;18.70;59.20;;;;;;10024381;28;20036;-66
2023/06/05 04:24:17;;;;;;;2.35;1.20;;;18.80;59.30;;;;;;10007181;28;20042;-61
2023/06/05 04:29:18;;;;;;;2.25;1.60;;;18.70;59.50;;;;;;10024160;28;20108;-74
2023/06/05 04:34:09;;;;;;;2.28;1.30;;;18.60;59.60;;;;;;10022790;28;20038;-70
2023/06/05 04:39:01;;;;;;;2.67;1.27;;;18.80;59.40;;;;;;10023403;28;20083;-61
2023/06/05 04:43:53;;;;;;;2.22;1.52;;;18.80;59.40;;;;;;10022397;28;20107;-68
2023/06/05 04:48:45;;;;;;;2.15;1.20;;;18.80;59.60;;;;;;10021914;28;20026;-62
2023/06/05 04:53:35;;;;;;;3.20;1.25;;;18.70;59.80;;;;;;10022588;28;20084;-65
2023/06/05 04:58:26;;;;;;;1.92;1.10;;;18.80;59.90;;;;;;10013356;28;20041;-63
2023/06/05 05:03:17;;;;;;;2.35;1.30;;;18.60;60.20;;;;;;10021508;28;20048;-60
2023/06/05 05:08:08;;;;;;;2.22;1.33;;;18.60;60.20;;;;;;10016036;28;20026;-64
2023/06/05 05:13:01;;;;;;;3.08;1.80;;;18.50;61.20;;;;;;10018912;28;20018;-65
2023/06/05 05:17:52;;;;;;;3.60;1.20;;;18.50;60.70;;;;;;10004289;28;20041;-61
2023/06/05 05:22:43;;;;;;;2.38;1.20;;;18.40;60.80;;;;;;10004367;28;20046;-67
2023/06/05 05:27:34;;;;;;;2.25;1.10;;;18.40;61.00;;;;;;10015781;28;20539;-71
2023/06/05 05:32:24;;;;;;;1.52;1.35;;;18.40;61.10;;;;;;10005876;28;20408;-69
2023/06/05 05:37:15;;;;;;;2.10;1.20;;;18.50;61.20;;;;;;10023051;28;20022;-74
2023/06/05 05:42:06;;;;;;;3.50;1.73;;;18.60;61.00;;;;;;10023452;28;20056;-61
2023/06/05 05:46:56;;;;;;;2.03;1.50;;;18.60;61.00;;;;;;10019806;28;20025;-62
2023/06/05 05:51:47;;;;;;;2.25;1.77;;;18.50;61.50;;;;;;10021380;28;20030;-62
2023/06/05 05:56:38;;;;;;;1.73;1.60;;;18.40;61.70;;;;;;10019882;28;20270;-60
2023/06/05 06:01:29;;;;;;;2.85;1.05;;;18.50;61.80;;;;;;10020501;28;20515;-60
2023/06/05 06:06:20;;;;;;;2.13;1.20;;;18.70;61.60;;;;;;10020158;28;20097;-67
2023/06/05 06:11:10;;;;;;;4.38;1.52;;;18.90;61.50;;;;;;10017671;28;20128;-65
2023/06/05 06:16:02;;;;;;;4.05;1.30;;;18.90;61.50;;;;;;10019893;28;20452;-63
2023/06/05 06:20:53;;;;;;;3.33;1.33;;;18.70;62.10;;;;;;10019567;28;20045;-63
2023/06/05 06:25:44;;;;;;;4.55;1.80;;;18.90;61.90;;;;;;10016756;28;20080;-61
2023/06/05 06:30:36;;;;;;;2.92;1.60;;;19.00;61.80;;;;;;10017898;28;20034;-63
2023/06/05 06:35:27;;;;;;;1.85;1.20;;;19.10;61.80;;;;;;10016922;28;20524;-62
2023/06/05 06:40:17;;;;;;;3.13;1.55;;;19.10;62.10;;;;;;10002089;28;20066;-63
2023/06/05 06:45:09;;;;;;;4.75;1.65;;;19.10;62.10;;;;;;9976773;28;20124;-61
2023/06/05 06:50:00;;;;;;;3.65;2.58;;;19.10;62.40;;;;;;9982502;28;20030;-60
2023/06/05 06:54:50;;;;;;;1.25;1.10;;;19.30;62.00;;;;;;9985229;28;20400;-62
2023/06/05 06:59:41;;;;;;;4.18;1.83;;;19.20;62.30;;;;;;9976489;28;21119;-61
2023/06/05 07:04:32;;;;;;;2.13;1.40;;;19.40;62.30;;;;;;9987897;28;20042;-61
2023/06/05 07:09:23;;;;;;;2.70;1.17;;;19.40;62.20;;;;;;9987043;28;20026;-65
2023/06/05 07:14:13;;;;;;;3.83;1.27;;;19.50;62.30;;;;;;9988024;28;20098;-61
2023/06/05 07:19:04;;;;;;;3.00;1.40;;;19.70;62.10;;;;;;9987831;28;20109;-62
2023/06/05 07:23:54;;;;;;;2.45;1.42;;;19.60;62.30;;;;;;9986861;28;20042;-61
2023/06/05 07:28:46;;;;;;;2.78;1.40;;;19.70;62.10;;;;;;9984231;28;20142;-62
2023/06/05 07:33:37;;;;;;;2.05;1.40;;;20.00;62.10;;;;;;9984022;28;20023;-69
2023/06/05 07:38:29;;;;;;;3.90;1.83;;;20.00;62.00;;;;;;9987246;28;20113;-63
2023/06/05 07:43:20;;;;;;;3.28;1.77;;;20.10;62.00;;;;;;10007731;28;20099;-67
2023/06/05 07:48:10;;;;;;;2.38;1.13;;;20.20;62.00;;;;;;10025575;28;20038;-66
2023/06/05 07:53:01;;;;;;;3.10;1.88;;;20.30;62.00;;;;;;10025192;28;20024;-65
2023/06/05 07:57:52;;;;;;;3.13;1.75;;;20.60;61.80;;;;;;10014334;28;20030;-63
2023/06/05 08:02:43;;;;;;;4.47;1.20;;;20.50;61.90;;;;;;10025819;28;20037;-67
2023/06/05 08:07:34;;;;;;;3.92;1.30;;;20.70;61.80;;;;;;10024058;28;20038;-61
2023/06/05 08:12:25;;;;;;;2.15;1.50;;;20.70;61.90;;;;;;10027335;28;20053;-60
2023/06/05 08:17:15;;;;;;;2.10;1.30;;;20.90;61.70;;;;;;10024290;28;20554;-61
2023/06/05 08:22:06;;;;;;;2.60;1.17;;;21.20;61.40;;;;;;10023799;28;20349;-68
2023/06/05 08:26:59;;;;;;;3.03;1.48;;;21.20;61.40;;;;;;10024321;28;20117;-60
2023/06/05 08:31:50;;;;;;;2.33;1.33;;;21.20;61.50;;;;;;10005579;28;20054;-60
2023/06/05 08:36:42;;;;;;;3.42;1.50;;;21.20;61.60;;;;;;10003328;28;20034;-64
2023/06/05 08:41:35;;;;;;;6.57;2.90;;;21.30;62.10;;;;;;10022790;28;20100;-60
2023/06/05 08:46:28;;;;;;;2.97;2.10;;;21.40;61.30;;;;;;10021758;28;20018;-64
2023/06/05 08:51:22;;;;;;;3.72;1.58;;;21.70;61.20;;;;;;10022434;28;20022;-60
2023/06/05 08:56:14;;;;;;;3.03;1.52;;;21.80;61.00;;;;;;10022533;28;20026;-64
2023/06/05 09:01:04;;;;;;;3.53;2.42;;;21.80;61.20;;;;;;10022625;28;20034;-64
2023/06/05 09:05:55;;;;;;;2.78;2.10;;;22.10;60.90;;;;;;10022135;28;20045;-62
2023/06/05 09:10:46;;;;;;;6.75;2.50;;;22.20;60.80;;;;;;10022742;28;20117;-68
2023/06/05 09:15:36;;;;;;;2.90;1.70;;;22.30;60.60;;;;;;10004201;28;20025;-62
2023/06/05 09:20:29;;;;;;;4.70;1.90;;;22.50;60.60;;;;;;10021536;28;20034;-65
2023/06/05 09:25:20;;;;;;;4.00;1.80;;;22.30;60.80;;;;;;10021217;28;20056;-63
2023/06/05 09:30:13;;;;;;;2.70;2.20;;;22.50;60.80;;;;;;10020887;28;20044;-67
2023/06/05 09:35:05;;;;;;;4.00;1.90;;;22.70;60.50;;;;;;10019088;28;20052;-64
2023/06/05 09:39:56;;;;;;;4.28;1.55;;;22.90;60.40;;;;;;10020987;28;20033;-62
2023/06/05 09:44:58;;;;;;;3.13;1.80;;;22.90;60.40;;;;;;10018694;28;20050;-68
2023/06/05 09:49:49;;;;;;;2.70;1.90;;;23.00;60.20;;;;;;10010101;28;20026;-62
2023/06/05 09:54:44;;;;;;;3.72;1.90;;;23.20;60.00;;;;;;10005044;28;20294;-63
2023/06/05 09:59:45;;;;;;;4.88;1.88;;;23.30;60.00;;;;;;10008882;28;20162;-61
2023/06/05 10:04:42;;;;;;;3.55;2.13;;;23.30;59.90;;;;;;10020850;28;20393;-65
2023/06/05 10:09:33;;;;;;;2.30;1.80;;;23.60;59.70;;;;;;10013690;28;20024;-65
2023/06/05 10:14:24;;;;;;;2.72;1.65;;;23.80;59.50;;;;;;10020341;28;20029;-61
2023/06/05 10:19:16;;;;;;;4.32;2.72;;;23.80;59.40;;;;;;10020744;28;20494;-68
2023/06/05 10:24:14;;;;;;;3.88;1.58;;;24.00;59.30;;;;;;10022101;28;20038;-61
2023/06/05 10:29:42;;;;;;;4.25;1.75;;;23.90;59.20;;;;;;10011875;28;20032;-63
2023/06/05 10:34:51;;;;;;;6.10;2.78;;;24.10;59.10;;;;;;10017827;28;20458;-62
2023/06/05 10:39:43;;;;;;;3.17;1.98;;;24.30;58.90;;;;;;10020600;28;20033;-63
2023/06/05 10:44:44;;;;;;;3.35;1.77;;;24.60;58.60;;;;;;10002518;28;20128;-70
2023/06/05 10:49:34;;;;;;;4.45;2.35;;;24.70;58.30;;;;;;10006825;28;20443;-65
2023/06/05 10:54:25;;;;;;;5.43;2.40;;;24.80;58.10;;;;;;10001094;28;20034;-60
2023/06/05 10:59:17;;;;;;;3.25;2.25;;;24.90;58.20;;;;;;10008930;28;20092;-66
2023/06/05 11:04:07;;;;;;;4.60;2.25;;;24.90;57.90;;;;;;10012447;28;20514;-64
2023/06/05 11:09:15;;;;;;;4.22;2.42;;;25.00;58.00;;;;;;10006935;28;20026;-62
2023/06/05 11:14:06;;;;;;;2.58;2.38;;;24.90;58.10;;;;;;10011577;28;20022;-69
2023/06/05 11:19:16;;;;;;;4.35;2.40;;;25.10;58.00;;;;;;10005792;28;20041;-63
2023/06/05 11:24:16;;;;;;;4.43;2.80;;;25.10;57.90;;;;;;10019230;28;20049;-62
2023/06/05 11:29:16;;;;;;;2.35;1.85;;;25.30;58.00;;;;;;9994573;28;20042;-68
2023/06/05 11:34:15;;;;;;;3.55;2.60;;;25.40;57.70;;;;;;10017852;28;20116;-62
2023/06/05 11:39:07;;;;;;;4.22;2.50;;;25.50;57.80;;;;;;10002364;28;20665;-68
2023/06/05 11:43:58;;;;;;;3.03;2.60;;;25.70;57.70;;;;;;10024899;28;20057;-61
2023/06/05 11:48:48;;;;;;;4.72;2.75;;;25.70;57.80;;;;;;10025258;28;20488;-73
2023/06/05 11:53:47;;;;;;;4.07;2.95;;;25.80;58.20;;;;;;10008007;28;20033;-62
2023/06/05 11:58:42;;;;;;;5.22;3.03;;;25.90;57.40;;;;;;9994637;28;20050;-68
2023/06/05 12:03:32;;;;;;;3.65;2.15;;;25.90;57.20;;;;;;10023985;28;20040;-64
2023/06/05 12:08:27;;;;;;;4.05;2.33;;;26.10;57.10;;;;;;10025295;28;20125;-64
2023/06/05 12:13:18;;;;;;;3.88;2.58;;;26.40;57.00;;;;;;10024304;28;20038;-61
2023/06/05 12:18:09;;;;;;;4.22;2.70;;;26.80;56.90;;;;;;10006133;28;20499;-63
2023/06/05 12:22:59;;;;;;;3.70;2.38;;;27.10;56.70;;;;;;10023656;28;20136;-62
2023/06/05 12:27:52;;;;;;;7.18;3.15;;;27.20;57.00;;;;;;10023559;28;20128;-62
2023/06/05 12:32:43;;;;;;;4.10;2.35;;;27.60;56.90;;;;;;10023741;28;20034;-63
2023/06/05 12:37:38;;;;;;;5.30;2.35;;;27.80;57.10;;;;;;10005370;28;20416;-62
2023/06/05 12:42:36;;;;;;;3.88;2.90;;;28.10;57.30;;;;;;10023502;28;20164;-62
2023/06/05 12:47:27;;;;;;;6.28;3.25;;;28.30;56.60;;;;;;10024184;28;20419;-62
2023/06/05 12:52:18;;;;;;;4.90;2.50;;;29.00;56.60;;;;;;10022214;28;20041;-61
2023/06/05 12:57:09;;;;;;;3.45;2.90;;;29.40;55.90;;;;;;10016464;28;20109;-64
2023/06/05 13:02:00;;;;;;;3.35;2.63;;;30.30;55.70;;;;;;10018144;28;20620;-62
2023/06/05 13:06:50;;;;;;;4.50;2.47;;;30.90;55.10;;;;;;10022463;28;20157;-63
2023/06/05 13:11:41;;;;;;;2.85;2.55;;;31.50;54.80;;;;;;10022350;28;20026;-72
2023/06/05 13:16:32;;;;;;;4.45;3.60;;;32.00;54.70;;;;;;10022394;28;20021;-68
2023/06/05 13:21:22;;;;;;;14.53;3.60;;;32.30;54.50;;;;;;10005560;28;20085;-62
2023/06/05 13:26:13;;;;;;;3.57;3.23;;;33.40;53.50;;;;;;10022725;28;20426;-70
2023/06/05 13:31:05;;;;;;;7.93;3.07;;;33.00;53.40;;;;;;10021294;28;20514;-64
2023/06/05 13:35:56;;;;;;;3.55;3.08;;;31.80;53.90;;;;;;10019193;28;20018;-62
2023/06/05 13:40:50;;;;;;;3.97;3.38;;;32.50;53.10;;;;;;10021298;28;20502;-61
2023/06/05 13:45:41;;;;;;;4.53;3.13;;;33.40;52.40;;;;;;10019498;28;20496;-63
2023/06/05 13:50:32;;;;;;;5.03;3.10;;;34.60;51.10;;;;;;10020382;28;20026;-62
2023/06/05 13:55:23;;;;;;;3.63;2.80;;;34.20;51.30;;;;;;10020498;28;20030;-64
2023/06/05 14:00:15;;;;;;;3.03;2.70;;;34.00;50.80;;;;;;10010188;28;20033;-68
2023/06/05 14:05:07;;;;;;;4.97;3.40;;;33.80;50.40;;;;;;10019284;28;20053;-64
2023/06/05 14:09:58;;;;;;;6.22;2.95;;;33.80;49.60;;;;;;10002284;28;20555;-62
2023/06/05 14:14:50;;;;;;;3.30;2.93;;;33.60;49.20;;;;;;10020185;28;20121;-66
2023/06/05 14:19:40;;;;;;;4.60;2.95;;;32.60;49.80;;;;;;10020498;28;20030;-70
2023/06/05 14:24:31;;;;;;;3.13;2.70;;;32.00;50.00;;;;;;10023186;28;20030;-69
2023/06/05 14:29:22;;;;;;;4.60;2.53;;;32.70;48.60;;;;;;10024291;28;20554;-70
2023/06/05 14:34:13;;;;;;;3.23;2.77;;;33.10;48.70;;;;;;10022299;28;20034;-74
2023/06/05 14:39:04;;;;;;;4.07;2.57;;;33.60;48.10;;;;;;10020975;28;20041;-66
2023/06/05 14:43:54;;;;;;;6.70;2.70;;;33.60;48.10;;;;;;10019725;28;20064;-63
2023/06/05 14:48:45;;;;;;;4.57;3.30;;;33.60;47.70;;;;;;10017104;28;20044;-62
2023/06/05 14:53:35;;;;;;;5.47;2.77;;;34.10;47.30;;;;;;10019154;28;20034;-62
2023/06/05 14:58:26;;;;;;;4.43;2.77;;;34.40;47.00;;;;;;10007888;28;20030;-62
2023/06/05 15:03:17;;;;;;;4.70;3.10;;;34.60;46.80;;;;;;10018945;28;20096;-63
2023/06/05 15:08:08;;;;;;;3.42;2.72;;;34.40;46.90;;;;;;10019168;28;20530;-64
2023/06/05 15:12:59;;;;;;;3.50;2.97;;;34.50;46.50;;;;;;10018361;28;20022;-63
2023/06/05 15:17:52;;;;;;;4.73;3.40;;;34.70;46.40;;;;;;10023805;28;20034;-62
2023/06/05 15:22:43;;;;;;;4.93;3.08;;;34.70;46.70;;;;;;10026710;28;20133;-60
2023/06/05 15:27:34;;;;;;;3.75;2.75;;;33.60;46.60;;;;;;10026560;28;20089;-62
2023/06/05 15:32:25;;;;;;;4.30;2.72;;;32.60;47.00;;;;;;10025586;28;20038;-62
2023/06/05 15:37:15;;;;;;;3.90;3.17;;;31.30;47.50;;;;;;10006143;28;20432;-70
2023/06/05 15:42:07;;;;;;;4.38;3.40;;;32.80;46.30;;;;;;10025949;28;20050;-65
2023/06/05 15:46:57;;;;;;;4.28;3.03;;;34.30;45.70;;;;;;10025552;28;20037;-66
2023/06/05 15:51:48;;;;;;;3.45;2.85;;;31.90;46.40;;;;;;10026788;28;20034;-64
2023/06/05 15:56:39;;;;;;;5.60;3.25;;;32.90;45.90;;;;;;10024491;28;20022;-68
2023/06/05 16:01:29;;;;;;;3.22;2.47;;;34.00;45.10;;;;;;10019355;28;20030;-62
2023/06/05 16:06:20;;;;;;;4.63;2.95;;;35.30;44.40;;;;;;10025073;28;20030;-67
2023/06/05 16:11:11;;;;;;;5.95;2.83;;;35.30;44.40;;;;;;10026585;28;20022;-63
2023/06/05 16:16:01;;;;;;;2.90;2.57;;;36.30;43.60;;;;;;10024295;28;20018;-70
2023/06/05 16:20:52;;;;;;;3.50;2.47;;;36.50;42.80;;;;;;10024884;28;20037;-72
2023/06/05 16:25:43;;;;;;;2.97;2.67;;;37.10;42.10;;;;;;10022338;28;20018;-63
2023/06/05 16:30:33;;;;;;;2.70;2.37;;;37.60;42.60;;;;;;10005169;28;20025;-63
2023/06/05 16:35:24;;;;;;;3.13;2.70;;;38.00;41.30;;;;;;10021889;28;20026;-73
2023/06/05 16:40:15;;;;;;;2.20;1.98;;;37.60;41.30;;;;;;10023593;28;20569;-66
2023/06/05 16:45:06;;;;;;;3.07;2.17;;;38.00;41.00;;;;;;10024250;28;20108;-64
2023/06/05 16:49:57;;;;;;;2.77;1.90;;;34.60;42.30;;;;;;10007073;28;20030;-71
2023/06/05 16:54:49;;;;;;;4.90;2.47;;;33.30;43.20;;;;;;10024373;28;20503;-72
2023/06/05 16:59:40;;;;;;;4.47;2.35;;;34.90;42.10;;;;;;10016644;28;20025;-63
2023/06/05 17:04:30;;;;;;;6.70;2.40;;;35.70;41.50;;;;;;10023546;28;20413;-65
2023/06/05 17:09:21;;;;;;;2.87;1.80;;;36.60;40.90;;;;;;10006785;28;20025;-65
2023/06/05 17:14:12;;;;;;;4.40;2.23;;;37.00;40.80;;;;;;10024051;28;20480;-69
2023/06/05 17:19:03;;;;;;;3.55;2.10;;;36.30;41.00;;;;;;10023250;28;20022;-67
2023/06/05 17:23:54;;;;;;;4.10;2.20;;;32.90;42.80;;;;;;10010813;28;20107;-70
2023/06/05 17:28:45;;;;;;;3.88;2.25;;;31.60;43.20;;;;;;10023340;28;20024;-65
2023/06/05 17:33:36;;;;;;;6.80;2.33;;;31.40;43.00;;;;;;10020845;28;20030;-66
2023/06/05 17:38:27;;;;;;;4.68;2.40;;;32.10;42.70;;;;;;10023860;28;20484;-64
2023/06/05 17:43:18;;;;;;;2.70;1.85;;;33.20;42.20;;;;;;10010775;28;20132;-62
2023/06/05 17:48:09;;;;;;;4.10;2.45;;;31.30;43.30;;;;;;10020272;28;20473;-61
2023/06/05 17:52:59;;;;;;;3.95;1.80;;;30.60;43.60;;;;;;10020855;28;20076;-62
2023/06/05 17:57:53;;;;;;;4.18;2.50;;;31.70;43.60;;;;;;10009320;28;20512;-63
2023/06/05 18:02:44;;;;;;;2.53;2.10;;;31.20;43.10;;;;;;10006181;28;20430;-61
2023/06/05 18:07:34;;;;;;;3.58;1.90;;;30.30;43.70;;;;;;10020100;28;20036;-68
2023/06/05 18:12:25;;;;;;;4.13;1.70;;;29.80;43.80;;;;;;10019444;28;20105;-75
2023/06/05 18:17:16;;;;;;;4.03;2.58;;;29.50;43.90;;;;;;10019413;28;20018;-65
2023/06/05 18:22:10;;;;;;;2.80;1.88;;;29.10;44.30;;;;;;10018199;28;20043;-69
2023/06/05 18:27:00;;;;;;;6.40;1.60;;;28.80;44.40;;;;;;9998642;28;20026;-68
2023/06/05 18:31:52;;;;;;;2.67;1.83;;;28.70;44.40;;;;;;10016138;28;20033;-61
2023/06/05 18:36:43;;;;;;;3.28;2.03;;;28.50;44.50;;;;;;10018463;28;20026;-62
2023/06/05 18:41:33;;;;;;;3.90;2.22;;;28.20;44.60;;;;;;10018941;28;20050;-62
2023/06/05 18:46:24;;;;;;;3.30;1.90;;;28.20;44.60;;;;;;9999782;28;20126;-68
2023/06/05 18:51:14;;;;;;;3.28;1.92;;;28.10;44.50;;;;;;10021809;28;20033;-62
2023/06/05 18:56:06;;;;;;;4.53;2.15;;;27.90;44.60;;;;;;10027249;28;20495;-66
2023/06/05 19:00:57;;;;;;;3.50;2.50;;;27.80;44.70;;;;;;10017941;28;20026;-68
2023/06/05 19:05:48;;;;;;;6.22;2.30;;;27.80;44.70;;;;;;10030638;28;20116;-69
2023/06/05 19:10:39;;;;;;;4.63;2.80;;;27.60;44.80;;;;;;10032586;28;20258;-67
2023/06/05 19:15:30;;;;;;;2.55;1.83;;;27.50;44.80;;;;;;10031442;28;20030;-64
2023/06/05 19:20:21;;;;;;;4.18;2.20;;;27.30;44.90;;;;;;9996817;28;20022;-64
2023/06/05 19:25:13;;;;;;;4.15;2.22;;;27.30;45.00;;;;;;10030970;28;20046;-66
2023/06/05 19:30:05;;;;;;;2.95;1.65;;;27.10;45.20;;;;;;10033133;28;20026;-65
2023/06/05 19:34:55;;;;;;;4.43;2.03;;;27.00;45.40;;;;;;10020475;28;20357;-67
2023/06/05 19:39:46;;;;;;;4.40;2.28;;;26.90;45.30;;;;;;10029631;28;20042;-61
2023/06/05 19:44:37;;;;;;;3.45;1.98;;;26.80;45.60;;;;;;10027232;28;20112;-71
2023/06/05 19:49:28;;;;;;;2.38;1.90;;;26.70;45.70;;;;;;10028120;28;20025;-74
2023/06/05 19:54:18;;;;;;;2.83;1.90;;;26.70;45.70;;;;;;10014427;28;20073;-78
2023/06/05 19:59:09;;;;;;;2.25;2.05;;;26.60;45.90;;;;;;10024318;28;20018;-75
2023/06/05 20:04:00;;;;;;;3.47;2.38;;;26.50;46.00;;;;;;10023275;28;20616;-64
2023/06/05 20:08:51;;;;;;;3.20;2.03;;;26.30;46.20;;;;;;10026115;28;20026;-67
2023/06/05 20:13:41;;;;;;;1.80;1.40;;;26.30;46.50;;;;;;10026380;28;20040;-66
2023/06/05 20:18:34;;;;;;;4.45;1.50;;;26.00;46.80;;;;;;10034312;28;20054;-76
2023/06/05 20:23:24;;;;;;;2.50;1.90;;;25.90;47.20;;;;;;10030199;28;20034;-62
2023/06/05 20:28:15;;;;;;;3.90;2.50;;;25.80;47.40;;;;;;10012418;28;20037;-65
2023/06/05 20:33:07;;;;;;;6.43;2.75;;;25.70;47.60;;;;;;10024186;28;20031;-62
2023/06/05 20:37:57;;;;;;;8.02;3.28;;;25.70;47.80;;;;;;10026114;28;20039;-61
2023/06/05 20:42:50;;;;;;;4.57;3.17;;;25.50;48.20;;;;;;10025675;28;20046;-67
2023/06/05 20:47:42;;;;;;;5.32;2.53;;;25.50;48.60;;;;;;10015574;28;20073;-63
2023/06/05 20:52:33;;;;;;;3.15;2.13;;;25.20;49.00;;;;;;10028800;28;20182;-67
2023/06/05 20:57:24;;;;;;;4.47;2.50;;;25.20;49.20;;;;;;10031355;28;20026;-65
2023/06/05 21:02:15;;;;;;;3.13;1.63;;;25.10;49.60;;;;;;10026430;28;20470;-62
2023/06/05 21:07:06;;;;;;;3.10;1.77;;;24.90;50.00;;;;;;10023748;28;20018;-65
2023/06/05 21:11:56;;;;;;;2.15;1.35;;;24.80;50.20;;;;;;10023564;28;20030;-61
2023/06/05 21:16:47;;;;;;;4.15;1.63;;;24.70;50.50;;;;;;10023517;28;20026;-61
2023/06/05 21:21:37;;;;;;;2.97;1.92;;;24.60;50.70;;;;;;10010014;28;20457;-72
2023/06/05 21:26:28;;;;;;;2.15;1.50;;;24.50;50.90;;;;;;10018324;28;20033;-61
2023/06/05 21:31:22;;;;;;;2.35;1.70;;;24.40;51.10;;;;;;10006140;28;20392;-66
2023/06/05 21:36:12;;;;;;;3.50;1.60;;;24.20;51.40;;;;;;10019401;28;20034;-60
2023/06/05 21:41:05;;;;;;;3.65;1.85;;;24.20;51.60;;;;;;10023148;28;20026;-61
2023/06/05 21:45:55;;;;;;;3.22;1.77;;;24.10;51.80;;;;;;10008302;28;20546;-66
2023/06/05 21:50:46;;;;;;;4.70;1.42;;;24.00;51.80;;;;;;10029503;28;20022;-68
2023/06/05 21:55:37;;;;;;;3.30;2.17;;;23.90;51.90;;;;;;10029407;28;20022;-64
2023/06/05 22:00:28;;;;;;;3.13;1.77;;;23.80;52.00;;;;;;10015362;28;20033;-62
2023/06/05 22:05:18;;;;;;;2.80;1.30;;;23.70;52.20;;;;;;10005575;28;20034;-61
2023/06/05 22:10:09;;;;;;;5.30;2.45;;;23.70;52.30;;;;;;10021153;28;20519;-62
2023/06/05 22:15:04;;;;;;;4.10;2.30;;;23.60;52.20;;;;;;10021166;28;20022;-61
2023/06/05 22:19:56;;;;;;;3.58;2.67;;;23.60;52.30;;;;;;10018866;28;20077;-64
2023/06/05 22:24:46;;;;;;;4.45;2.13;;;23.50;52.30;;;;;;10021004;28;20336;-65
2023/06/05 22:29:37;;;;;;;3.45;2.10;;;23.50;52.50;;;;;;10019443;28;20033;-71
2023/06/05 22:34:27;;;;;;;2.33;1.73;;;23.40;52.50;;;;;;9992292;28;20026;-62
2023/06/05 22:39:18;;;;;;;4.25;2.47;;;23.30;52.80;;;;;;10026043;28;20097;-66
2023/06/05 22:44:09;;;;;;;3.85;2.03;;;23.10;53.00;;;;;;10026259;28;20071;-64
2023/06/05 22:49:01;;;;;;;2.75;1.90;;;23.10;53.00;;;;;;10011866;28;20052;-70
2023/06/05 22:53:51;;;;;;;5.03;1.83;;;23.00;53.10;;;;;;9996355;28;20021;-63
2023/06/05 22:58:42;;;;;;;5.47;1.85;;;22.80;53.50;;;;;;9994573;28;20032;-69
2023/06/05 23:03:33;;;;;;;4.88;2.00;;;22.70;53.40;;;;;;10022483;28;20109;-71
2023/06/05 23:08:24;;;;;;;6.95;1.90;;;22.60;53.70;;;;;;10016675;28;20049;-65
2023/06/05 23:13:15;;;;;;;3.42;1.83;;;22.50;53.90;;;;;;10026066;28;20038;-62
2023/06/05 23:18:06;;;;;;;4.10;2.65;;;22.50;53.80;;;;;;10024298;28;20018;-63
2023/06/05 23:22:58;;;;;;;2.65;1.52;;;22.50;53.70;;;;;;10029492;28;20030;-62
2023/06/05 23:27:48;;;;;;;2.95;1.73;;;22.40;53.80;;;;;;10034954;28;20101;-75
2023/06/05 23:32:39;;;;;;;2.95;2.10;;;22.40;53.70;;;;;;10029287;28;20030;-71
2023/06/05 23:37:30;;;;;;;3.80;2.35;;;22.30;54.00;;;;;;10033437;28;20053;-64
2023/06/05 23:42:22;;;;;;;2.80;1.42;;;22.20;54.10;;;;;;10012170;28;20309;-63
2023/06/05 23:47:12;;;;;;;4.60;1.85;;;22.20;54.00;;;;;;10025139;28;20574;-61
2023/06/05 23:52:03;;;;;;;3.10;1.70;;;22.20;54.10;;;;;;10016151;28;20099;-63
2023/06/05 23:56:54;;;;;;;4.38;2.28;;;22.00;54.10;;;;;;10027547;28;20401;-64
